Time;durP1;ratioP1;P1;durP2;ratioP2;P2;SDS_P1;SDS_P2;PMS_P1;PMS_P2;Temp;Humidity;BMP_temperature;BMP_pressure;BME280_temperature;BME280_humidity;BME280_pressure;Samples;Min_cycle;Max_cycle;Signal;HPM_P1;HPM_P2
2021/08/11 00:00:26;;;;;;;10.80;4.90;;;16.90;99.90;;;;;;6734113;88;20189;-77
2021/08/11 00:10:27;;;;;;;7.00;4.72;;;17.00;99.90;;;;;;6734448;88;20234;-77
2021/08/11 00:20:27;;;;;;;8.15;5.30;;;16.80;99.90;;;;;;6734073;88;20229;-77
2021/08/11 00:30:28;;;;;;;8.75;5.68;;;16.70;99.90;;;;;;6733742;88;20234;-77
2021/08/11 00:40:30;;;;;;;8.98;5.00;;;16.60;99.90;;;;;;6734165;88;20966;-77
2021/08/11 00:50:32;;;;;;;10.00;4.75;;;16.60;99.90;;;;;;6736538;88;21087;-77
2021/08/11 01:00:33;;;;;;;7.87;4.40;;;16.40;99.90;;;;;;6736396;88;20188;-77
2021/08/11 01:10:34;;;;;;;8.55;4.45;;;16.20;99.90;;;;;;6736021;88;20258;-77
2021/08/11 01:20:39;;;;;;;9.70;4.45;;;16.20;99.90;;;;;;6737017;88;20216;-77
2021/08/11 01:31:03;;;;;;;8.18;3.97;;;16.00;99.90;;;;;;6737088;88;20243;-77
2021/08/11 01:41:06;;;;;;;7.65;4.28;;;16.00;99.90;;;;;;6736478;88;20223;-77
2021/08/11 01:51:08;;;;;;;8.25;4.55;;;15.80;99.90;;;;;;6732572;88;20711;-77
2021/08/11 02:01:09;;;;;;;9.27;4.43;;;15.70;99.90;;;;;;6735164;88;20327;-77
2021/08/11 02:11:11;;;;;;;9.63;4.28;;;15.70;99.90;;;;;;6735251;88;20258;-77
2021/08/11 02:21:12;;;;;;;8.65;4.47;;;15.60;99.90;;;;;;6735992;88;20812;-77
2021/08/11 02:31:22;;;;;;;6.82;4.18;;;15.60;99.90;;;;;;6737044;88;20173;-77
2021/08/11 02:41:28;;;;;;;7.78;4.43;;;15.50;99.90;;;;;;6734695;88;20235;-77
2021/08/11 02:51:30;;;;;;;5.97;4.43;;;15.30;99.90;;;;;;6739915;88;20212;-77
2021/08/11 03:01:31;;;;;;;8.00;3.97;;;15.30;99.90;;;;;;6730804;88;20189;-77
2021/08/11 03:11:33;;;;;;;8.07;4.12;;;15.20;99.90;;;;;;6734338;88;20214;-77
2021/08/11 03:21:35;;;;;;;9.43;4.57;;;15.10;99.90;;;;;;6734209;88;20633;-77
2021/08/11 03:31:36;;;;;;;8.40;4.25;;;15.00;99.90;;;;;;6734017;88;20664;-77
2021/08/11 03:41:36;;;;;;;8.25;3.97;;;14.80;99.90;;;;;;6735715;88;20206;-78
2021/08/11 04:01:40;;;;;;;11.52;5.60;;;14.70;99.90;;;;;;6714490;88;20646;-78
2021/08/11 04:11:41;;;;;;;7.70;5.15;;;14.60;99.90;;;;;;6718068;88;20216;-77
2021/08/11 04:21:41;;;;;;;9.10;5.32;;;14.60;99.90;;;;;;6709873;88;20336;-78
2021/08/11 04:31:42;;;;;;;9.07;5.50;;;14.70;99.90;;;;;;6711512;88;20635;-78
2021/08/11 04:41:43;;;;;;;12.53;6.93;;;14.60;99.90;;;;;;6710011;88;20705;-77
2021/08/11 04:51:43;;;;;;;11.70;7.10;;;14.50;99.90;;;;;;6706661;88;20497;-78
2021/08/11 05:01:44;;;;;;;10.38;7.10;;;14.40;99.90;;;;;;6713860;88;20205;-78
2021/08/11 05:11:44;;;;;;;17.70;9.98;;;14.80;99.90;;;;;;6716372;88;20207;-78
2021/08/11 05:21:45;;;;;;;14.57;8.63;;;14.70;99.90;;;;;;6720246;88;20208;-78
2021/08/11 05:31:45;;;;;;;15.55;8.45;;;14.80;99.90;;;;;;6726614;88;20201;-77
2021/08/11 05:41:46;;;;;;;14.43;8.63;;;14.90;99.90;;;;;;6724397;88;20190;-78
2021/08/11 05:51:47;;;;;;;14.25;8.13;;;15.10;99.90;;;;;;6713359;88;21018;-78
2021/08/11 06:01:47;;;;;;;15.45;8.15;;;15.30;99.90;;;;;;6720116;88;20287;-77
2021/08/11 06:11:48;;;;;;;10.90;6.97;;;15.60;99.90;;;;;;6726951;88;20632;-78
2021/08/11 06:21:48;;;;;;;8.80;5.50;;;16.00;99.90;;;;;;6725322;88;20907;-77
2021/08/11 06:31:49;;;;;;;8.85;4.80;;;16.50;99.90;;;;;;6716622;88;20199;-77
2021/08/11 06:41:49;;;;;;;8.38;4.97;;;17.00;99.90;;;;;;6706389;88;20642;-77
2021/08/11 06:51:50;;;;;;;8.00;5.00;;;17.40;99.90;;;;;;6700450;88;20225;-77
2021/08/11 07:01:50;;;;;;;8.48;5.47;;;17.90;99.90;;;;;;6697635;88;20244;-77
2021/08/11 07:11:51;;;;;;;7.37;4.80;;;18.40;99.90;;;;;;6697070;88;20720;-77
2021/08/11 07:21:51;;;;;;;8.35;5.45;;;19.00;99.90;;;;;;6696616;88;21114;-77
2021/08/11 07:31:52;;;;;;;9.30;5.37;;;19.60;99.90;;;;;;6693281;88;20193;-77
2021/08/11 07:41:52;;;;;;;9.27;5.10;;;20.20;99.90;;;;;;6693023;88;20194;-77
2021/08/11 07:51:53;;;;;;;12.27;5.50;;;20.40;99.90;;;;;;6696403;88;20337;-76
2021/08/11 08:01:54;;;;;;;8.73;4.40;;;20.80;99.90;;;;;;6697683;88;20600;-77
2021/08/11 08:11:54;;;;;;;5.70;4.03;;;21.30;99.90;;;;;;6704772;88;20192;-77
2021/08/11 08:21:55;;;;;;;7.37;3.97;;;21.50;99.90;;;;;;6731836;88;20200;-77
2021/08/11 08:31:55;;;;;;;6.03;3.83;;;22.00;99.90;;;;;;6732179;88;20247;-77
2021/08/11 08:41:56;;;;;;;6.60;4.00;;;22.00;99.90;;;;;;6731702;88;20180;-77
2021/08/11 08:51:57;;;;;;;5.15;3.58;;;22.10;99.90;;;;;;6731513;88;20218;-77
2021/08/11 09:01:57;;;;;;;6.60;3.60;;;22.60;99.90;;;;;;6734544;88;20258;-78
2021/08/11 09:12:15;;;;;;;5.37;2.90;;;22.70;99.90;;;;;;6732346;88;20205;-77
2021/08/11 09:22:16;;;;;;;4.50;2.62;;;23.60;99.90;;;;;;6717310;88;20296;-78
2021/08/11 09:32:18;;;;;;;6.80;3.20;;;24.80;99.90;;;;;;6712988;88;20332;-77
2021/08/11 09:42:18;;;;;;;5.00;2.33;;;24.90;99.90;;;;;;6712999;88;20181;-77
2021/08/11 09:52:19;;;;;;;3.03;1.77;;;25.90;99.90;;;;;;6707628;77;20189;-75
2021/08/11 10:02:20;;;;;;;4.72;2.70;;;27.40;99.90;;;;;;6714377;88;20600;-75
2021/08/11 10:12:28;;;;;;;3.30;2.30;;;26.60;99.90;;;;;;6732124;88;20185;-75
2021/08/11 10:22:30;;;;;;;3.17;2.03;;;27.10;99.90;;;;;;6724940;88;20198;-75
2021/08/11 10:32:32;;;;;;;5.70;2.30;;;27.40;99.90;;;;;;6730630;88;21272;-75
2021/08/11 10:42:33;;;;;;;3.85;2.30;;;27.30;99.90;;;;;;6731165;88;20293;-75
2021/08/11 10:52:33;;;;;;;4.65;2.40;;;26.50;99.90;;;;;;6730176;88;20242;-75
2021/08/11 11:02:37;;;;;;;3.70;2.10;;;25.90;99.90;;;;;;6730747;88;20255;-75
2021/08/11 11:12:38;;;;;;;4.90;2.20;;;26.40;99.90;;;;;;6729858;88;21087;-75
2021/08/11 11:22:51;;;;;;;6.57;2.60;;;26.60;99.90;;;;;;6730070;88;20388;-74
2021/08/11 11:32:52;;;;;;;3.58;2.30;;;27.30;99.90;;;;;;6732594;88;20215;-74
2021/08/11 11:43:26;;;;;;;7.78;2.60;;;27.80;99.90;;;;;;6731184;88;20701;-76
2021/08/11 11:53:26;;;;;;;3.95;2.30;;;27.90;99.90;;;;;;6730274;88;20192;-75
2021/08/11 12:03:37;;;;;;;7.32;2.40;;;28.30;99.90;;;;;;6729674;88;20189;-75
2021/08/11 12:13:38;;;;;;;5.28;2.30;;;28.50;99.90;;;;;;6729627;88;20328;-75
2021/08/11 12:23:39;;;;;;;3.23;2.40;;;30.00;99.90;;;;;;6729237;88;20192;-76
2021/08/11 12:33:46;;;;;;;5.93;2.60;;;30.40;99.50;;;;;;6731487;88;20193;-75
2021/08/11 12:43:51;;;;;;;5.12;2.25;;;29.50;99.80;;;;;;6732846;88;20787;-76
2021/08/11 12:54:03;;;;;;;4.82;2.55;;;30.10;99.00;;;;;;6732771;88;20350;-75
2021/08/11 13:04:23;;;;;;;4.43;2.27;;;29.40;98.30;;;;;;6732657;88;20640;-75
2021/08/11 13:14:46;;;;;;;4.78;2.30;;;28.00;99.90;;;;;;6739042;88;20697;-76
2021/08/11 13:24:48;;;;;;;3.97;2.60;;;28.70;98.80;;;;;;6732728;88;20181;-75
2021/08/11 13:34:48;;;;;;;;;;;29.70;97.70;;;;;;6732539;88;20217;-75
2021/08/11 13:44:50;;;;;;;4.40;2.40;;;30.20;97.10;;;;;;6731493;88;20168;-76
2021/08/11 13:54:50;;;;;;;7.50;2.60;;;30.00;97.50;;;;;;6730365;88;20201;-76
2021/08/11 14:04:52;;;;;;;3.70;2.90;;;29.30;98.50;;;;;;6731843;88;20219;-74
2021/08/11 14:14:53;;;;;;;6.97;2.83;;;28.70;98.80;;;;;;6746212;88;20212;-75
2021/08/11 14:24:53;;;;;;;3.92;2.50;;;28.70;98.50;;;;;;6733824;88;20206;-75
2021/08/11 14:34:54;;;;;;;5.10;2.83;;;28.30;99.00;;;;;;6752350;88;20283;-75
2021/08/11 14:44:54;;;;;;;5.53;2.90;;;27.60;99.70;;;;;;6732119;88;20207;-76
2021/08/11 14:54:54;;;;;;;6.22;3.00;;;27.70;99.90;;;;;;6731233;88;20238;-76
2021/08/11 15:04:55;;;;;;;4.68;2.80;;;28.60;98.80;;;;;;6730648;88;20216;-76
2021/08/11 15:14:56;;;;;;;5.57;3.00;;;28.40;99.90;;;;;;6727596;88;20253;-76
2021/08/11 15:24:56;;;;;;;5.35;2.97;;;28.60;98.50;;;;;;6730528;88;20262;-76
2021/08/11 15:34:57;;;;;;;6.57;2.80;;;28.30;99.20;;;;;;6729675;88;20315;-75
2021/08/11 15:44:57;;;;;;;4.40;2.60;;;28.40;99.70;;;;;;6725756;88;20207;-75
2021/08/11 15:54:58;;;;;;;3.67;2.75;;;28.90;98.60;;;;;;6719862;77;20596;-76
2021/08/11 16:04:58;;;;;;;4.40;2.60;;;29.00;98.00;;;;;;6714778;88;20198;-77
2021/08/11 16:14:59;;;;;;;4.35;2.90;;;28.70;98.30;;;;;;6713627;88;20612;-76
2021/08/11 16:24:59;;;;;;;5.10;2.62;;;28.30;98.60;;;;;;6697292;88;20220;-77
2021/08/11 16:35:00;;;;;;;5.75;3.10;;;28.00;99.30;;;;;;6709193;88;20181;-76
2021/08/11 16:45:00;;;;;;;4.82;2.90;;;27.90;98.90;;;;;;6697036;88;20198;-76
2021/08/11 16:55:01;;;;;;;5.00;2.90;;;28.30;99.10;;;;;;6701513;88;20376;-78
2021/08/11 17:05:03;;;;;;;4.18;2.85;;;27.90;99.70;;;;;;6699890;88;20203;-75
2021/08/11 17:15:04;;;;;;;4.05;2.83;;;27.80;99.90;;;;;;6707912;88;20207;-75
2021/08/11 17:25:05;;;;;;;4.37;2.65;;;26.90;99.90;;;;;;6712504;88;20185;-75
2021/08/11 17:35:07;;;;;;;5.70;3.17;;;27.10;99.90;;;;;;6708374;88;20239;-74
2021/08/11 17:45:09;;;;;;;5.57;3.10;;;28.10;99.90;;;;;;6703421;88;20203;-74
2021/08/11 17:55:09;;;;;;;4.50;2.78;;;27.30;99.90;;;;;;6704483;88;20199;-74
2021/08/11 18:05:10;;;;;;;3.83;2.70;;;26.30;99.90;;;;;;6703987;88;20602;-73
2021/08/11 18:15:11;;;;;;;5.13;2.97;;;25.50;99.90;;;;;;6694303;88;20551;-73
2021/08/11 18:25:12;;;;;;;4.75;3.08;;;25.10;99.90;;;;;;6705309;88;21163;-74
2021/08/11 18:35:13;;;;;;;8.30;3.55;;;24.80;99.90;;;;;;6694474;88;20186;-74
2021/08/11 18:45:15;;;;;;;5.45;3.00;;;24.50;99.90;;;;;;6699617;88;20735;-74
2021/08/11 18:55:15;;;;;;;6.40;4.10;;;24.10;99.90;;;;;;6701242;88;20240;-74
2021/08/11 19:05:16;;;;;;;8.65;3.78;;;23.50;99.90;;;;;;6703208;88;20194;-74
2021/08/11 19:15:16;;;;;;;6.60;4.10;;;23.30;99.90;;;;;;6706611;88;20397;-74
2021/08/11 19:25:17;;;;;;;6.82;4.12;;;22.90;99.90;;;;;;6701025;88;20171;-74
2021/08/11 19:35:17;;;;;;;6.97;4.28;;;22.30;99.90;;;;;;6701548;88;20356;-74
2021/08/11 19:45:18;;;;;;;6.68;4.20;;;22.20;99.90;;;;;;6698633;88;21045;-74
2021/08/11 19:55:19;;;;;;;7.62;4.37;;;22.00;99.90;;;;;;6699858;88;20301;-74
2021/08/11 20:05:19;;;;;;;7.50;4.82;;;21.60;99.90;;;;;;6693969;88;20212;-73
2021/08/11 20:15:21;;;;;;;7.35;4.30;;;21.40;99.90;;;;;;6694134;88;20178;-73
2021/08/11 20:25:21;;;;;;;6.97;4.07;;;21.20;99.90;;;;;;6689351;88;20692;-74
2021/08/11 20:35:23;;;;;;;6.17;3.97;;;21.00;99.90;;;;;;6696201;88;20268;-74
2021/08/11 20:45:24;;;;;;;6.75;4.20;;;20.80;99.90;;;;;;6694760;88;20308;-75
2021/08/11 20:55:24;;;;;;;8.40;4.83;;;20.70;99.90;;;;;;6697120;88;20366;-73
2021/08/11 21:05:25;;;;;;;7.50;4.80;;;20.50;99.90;;;;;;6698667;88;20623;-73
2021/08/11 21:15:25;;;;;;;7.82;4.90;;;20.40;99.90;;;;;;6696600;88;20206;-73
2021/08/11 21:25:26;;;;;;;6.65;4.53;;;20.00;99.90;;;;;;6695643;88;20921;-74
2021/08/11 21:35:26;;;;;;;9.40;4.57;;;19.90;99.90;;;;;;6694096;88;20219;-74
2021/08/11 21:45:27;;;;;;;8.02;4.70;;;19.90;99.90;;;;;;6703467;88;20191;-75
2021/08/11 21:55:27;;;;;;;8.65;4.40;;;19.70;99.90;;;;;;6701686;88;20313;-76
2021/08/11 22:05:28;;;;;;;7.82;5.45;;;19.30;99.90;;;;;;6698871;88;20310;-76
2021/08/11 22:15:29;;;;;;;10.13;4.80;;;19.20;99.90;;;;;;6712197;77;20166;-76
2021/08/11 22:25:29;;;;;;;7.60;5.00;;;19.20;99.90;;;;;;6718438;88;20300;-74
2021/08/11 22:35:30;;;;;;;7.72;4.80;;;18.90;99.90;;;;;;6719582;88;20655;-75
2021/08/11 22:45:31;;;;;;;6.85;4.70;;;18.70;99.90;;;;;;6716003;88;20201;-76
2021/08/11 22:55:31;;;;;;;8.68;5.20;;;18.50;99.90;;;;;;6718988;88;20192;-76
2021/08/11 23:05:32;;;;;;;7.47;5.20;;;18.50;99.90;;;;;;6717859;88;20210;-76
2021/08/11 23:15:33;;;;;;;7.87;5.10;;;18.10;99.90;;;;;;6718077;88;20185;-74
2021/08/11 23:25:33;;;;;;;7.77;5.03;;;17.90;99.90;;;;;;6719409;88;20242;-75
2021/08/11 23:35:34;;;;;;;8.65;5.12;;;17.90;99.90;;;;;;6716039;88;20673;-76
2021/08/11 23:45:34;;;;;;;7.32;5.10;;;17.80;99.90;;;;;;6716586;88;20198;-76
2021/08/11 23:55:35;;;;;;;8.52;5.20;;;17.70;99.90;;;;;;6716571;88;20208;-76
